KCGC

Crystal River-Captain Tom Davis Field Airport

Crystal River, Florida, USA
METAR KCGC 231115Z AUTO 00000KT 10SM CLR 17/16 A3011 RMK AO2
Observed Flight Rules
Oct-23 @ 11:15 UTC (34 minutes ago) Visual Flight Rules
Visibility Clouds
10 miles
  • Clear skies
Temperatures Readings
Current 17°C / 63°F
Dewpoint 16°C / 61°F
Humidity 94%
Altimeter 30.11" Hg
Pressure 1020 hPa
Elevation 3
METAR KCGC 231115Z AUTO 00000KT 10SM CLR 17/16 A3011 RMK AO2
Observed Flight Rules
Oct-23 @ 11:15 UTC
(34 minutes ago)
VFR
Clouds
  • Clear skies
Temperature Dewpoint
17°C / 63°F 16°C / 61°F
Humidity Altimeter Pressure
94% 30.11" Hg 1020 hPa